createdAt,value
2022-10-11T00:02:03.133Z,6.77
2022-10-11T00:04:29.872Z,6.78
2022-10-11T00:06:56.553Z,6.79
2022-10-11T00:09:23.274Z,6.81
2022-10-11T00:11:49.994Z,6.86
2022-10-11T00:14:16.725Z,6.83
2022-10-11T00:16:44.783Z,6.90
2022-10-11T00:19:12.006Z,6.94
2022-10-11T00:21:39.376Z,7.02
2022-10-11T00:24:06.686Z,7.06
2022-10-11T00:26:33.380Z,7.02
2022-10-11T00:29:02.470Z,6.99
2022-10-11T00:31:33.305Z,6.95
2022-10-11T00:34:02.191Z,7.02
2022-10-11T00:36:28.822Z,7.18
2022-10-11T00:38:55.560Z,7.21
2022-10-11T00:41:22.891Z,7.29
2022-10-11T00:44:08.939Z,7.47
2022-10-11T00:46:35.784Z,7.52
2022-10-11T00:49:45.401Z,7.61
2022-10-11T00:52:22.036Z,7.73
2022-10-11T00:54:49.495Z,7.70
2022-10-11T00:57:21.845Z,7.67
2022-10-11T00:59:52.617Z,7.56
2022-10-11T01:02:20.638Z,7.55
2022-10-11T01:04:47.587Z,7.47
2022-10-11T01:07:14.274Z,7.41
2022-10-11T01:09:40.936Z,7.36
2022-10-11T01:12:17.947Z,7.28
2022-10-11T01:15:05.511Z,7.22
2022-10-11T01:18:06.707Z,7.15
2022-10-11T01:20:51.314Z,7.10
2022-10-11T01:23:51.328Z,7.08
2022-10-11T01:26:18.030Z,7.03
2022-10-11T01:28:57.180Z,6.92
2022-10-11T01:31:32.172Z,6.95
2022-10-11T01:34:01.665Z,6.96
2022-10-11T01:36:46.796Z,7.02
2022-10-11T01:39:20.158Z,7.09
2022-10-11T01:41:51.180Z,7.08
2022-10-11T01:44:18.848Z,7.07
2022-10-11T01:46:45.571Z,7.03
2022-10-11T01:49:12.307Z,7.01
2022-10-11T01:51:52.741Z,7.03
2022-10-11T01:54:50.184Z,7.10
2022-10-11T01:57:26.388Z,7.12
2022-10-11T01:59:59.148Z,7.15
2022-10-11T02:02:51.664Z,7.18
2022-10-11T02:05:24.223Z,7.20
2022-10-11T02:08:14.442Z,7.21
2022-10-11T02:10:48.140Z,7.22
2022-10-11T02:13:39.972Z,7.29
2022-10-11T02:16:12.836Z,7.32
2022-10-11T02:18:45.872Z,7.32
2022-10-11T02:21:18.639Z,7.34
2022-10-11T02:23:51.229Z,7.38
2022-10-11T02:26:19.981Z,7.36
2022-10-11T02:28:49.256Z,7.35
2022-10-11T02:31:18.152Z,7.35
2022-10-11T02:33:59.104Z,7.39
2022-10-11T02:36:48.170Z,7.44
2022-10-11T02:39:31.516Z,7.46
2022-10-11T02:42:02.291Z,7.50
2022-10-11T02:44:35.750Z,7.52
2022-10-11T02:47:04.002Z,7.50
2022-10-11T02:49:32.091Z,7.51
2022-10-11T02:51:59.410Z,7.54
2022-10-11T02:54:26.327Z,7.54
2022-10-11T02:56:53.280Z,7.57
2022-10-11T02:59:19.965Z,7.61
2022-10-11T03:01:46.866Z,7.62
2022-10-11T03:04:14.057Z,7.61
2022-10-11T03:06:40.800Z,7.64
2022-10-11T03:09:07.502Z,7.56
2022-10-11T03:11:34.316Z,7.48
2022-10-11T03:14:00.956Z,7.50
2022-10-11T03:16:27.630Z,7.49
2022-10-11T03:18:54.262Z,7.49
2022-10-11T03:21:20.957Z,7.53
2022-10-11T03:23:47.657Z,7.56
2022-10-11T03:26:14.456Z,7.63
2022-10-11T03:28:41.475Z,7.67
2022-10-11T03:31:08.265Z,7.74
2022-10-11T03:33:34.946Z,7.77
2022-10-11T03:36:02.030Z,7.83
2022-10-11T03:38:28.883Z,7.81
2022-10-11T03:40:55.506Z,7.84
2022-10-11T03:43:22.286Z,7.82
2022-10-11T03:45:48.974Z,7.85
2022-10-11T03:48:15.768Z,7.89
2022-10-11T03:50:42.453Z,7.89
2022-10-11T03:53:09.421Z,7.89
2022-10-11T03:55:41.393Z,7.92
2022-10-11T03:58:08.417Z,8.01
2022-10-11T04:00:35.712Z,8.06
2022-10-11T04:03:03.972Z,8.09
2022-10-11T04:05:31.342Z,8.07
2022-10-11T04:07:58.092Z,8.04
2022-10-11T04:10:24.786Z,8.05
2022-10-11T04:12:51.409Z,8.05
2022-10-11T04:15:18.285Z,8.05
2022-10-11T04:17:45.117Z,8.05
2022-10-11T04:20:11.928Z,8.10
2022-10-11T04:22:38.703Z,8.12
2022-10-11T04:25:06.806Z,8.17
2022-10-11T04:27:33.734Z,8.23
2022-10-11T04:30:00.579Z,8.25
2022-10-11T04:32:27.961Z,8.31
2022-10-11T04:34:54.669Z,8.29
2022-10-11T04:37:21.441Z,8.26
2022-10-11T04:39:48.087Z,8.28
2022-10-11T04:42:14.850Z,8.30
2022-10-11T04:44:41.510Z,8.33
2022-10-11T04:47:08.190Z,8.32
2022-10-11T04:49:34.909Z,8.32
2022-10-11T04:52:01.660Z,8.30
2022-10-11T04:54:28.406Z,8.28
2022-10-11T04:56:55.088Z,8.25
2022-10-11T04:59:21.843Z,8.24
2022-10-11T05:01:48.570Z,8.21
2022-10-11T05:04:15.342Z,8.23
2022-10-11T05:06:42.062Z,8.23
2022-10-11T05:09:08.966Z,8.24
2022-10-11T05:11:35.751Z,8.20
2022-10-11T05:14:02.606Z,8.17
2022-10-11T05:16:29.297Z,8.17
2022-10-11T05:18:55.959Z,8.16
2022-10-11T05:21:28.472Z,8.17
2022-10-11T05:23:56.651Z,8.16
2022-10-11T05:26:25.601Z,8.30
2022-10-11T05:28:52.925Z,8.33
2022-10-11T05:31:20.390Z,8.21
2022-10-11T05:33:47.165Z,8.23
2022-10-11T05:36:14.372Z,8.14
2022-10-11T05:38:41.542Z,8.09
2022-10-11T05:41:12.646Z,8.14
2022-10-11T05:43:39.347Z,8.10
2022-10-11T05:46:16.403Z,8.07
2022-10-11T05:48:43.123Z,8.09
2022-10-11T05:51:11.621Z,8.18
2022-10-11T05:53:38.952Z,8.26
2022-10-11T05:56:16.749Z,8.29
2022-10-11T05:58:43.524Z,8.29
2022-10-11T06:01:22.991Z,8.45
2022-10-11T06:03:49.915Z,8.42
2022-10-11T06:06:17.427Z,8.36
2022-10-11T06:08:44.762Z,8.32
2022-10-11T06:11:17.745Z,8.31
2022-10-11T06:13:44.802Z,8.28
2022-10-11T06:16:12.488Z,8.29
2022-10-11T06:18:39.586Z,8.26
2022-10-11T06:21:06.581Z,8.27
2022-10-11T06:23:33.231Z,8.30
2022-10-11T06:26:02.599Z,8.29
2022-10-11T06:28:29.994Z,8.35
2022-10-11T06:30:57.514Z,8.34
2022-10-11T06:33:24.925Z,8.29
2022-10-11T06:36:04.810Z,8.23
2022-10-11T06:38:31.750Z,8.20
2022-10-11T06:40:58.470Z,8.20
2022-10-11T06:43:25.435Z,8.21
2022-10-11T06:45:52.107Z,8.24
2022-10-11T06:48:18.783Z,8.28
2022-10-11T06:50:59.528Z,8.30
2022-10-11T06:53:27.874Z,8.40
2022-10-11T06:55:54.526Z,8.45
2022-10-11T06:58:21.264Z,8.50
2022-10-11T07:00:47.967Z,8.54
2022-10-11T07:03:14.742Z,8.56
2022-10-11T07:05:41.371Z,8.57
2022-10-11T07:08:08.078Z,8.57
2022-10-11T07:10:35.702Z,8.60
2022-10-11T07:13:03.207Z,8.67
2022-10-11T07:15:30.082Z,8.69
2022-10-11T07:17:56.775Z,8.73
2022-10-11T07:20:31.590Z,8.82
2022-10-11T07:22:58.373Z,8.89
2022-10-11T07:25:25.059Z,8.95
2022-10-11T07:27:51.738Z,8.99
2022-10-11T07:30:18.504Z,9.07
2022-10-11T07:32:45.184Z,9.12
2022-10-11T07:35:11.918Z,9.22
2022-10-11T07:37:38.658Z,9.26
2022-10-11T07:40:06.997Z,9.23
2022-10-11T07:42:33.718Z,9.17
2022-10-11T07:45:00.361Z,9.16
2022-10-11T07:47:27.040Z,9.18
2022-10-11T07:49:53.733Z,9.22
2022-10-11T07:52:20.456Z,9.26
2022-10-11T07:54:50.114Z,9.32
2022-10-11T07:57:16.824Z,9.41
2022-10-11T07:59:47.826Z,9.42
2022-10-11T08:02:16.747Z,9.37
2022-10-11T08:04:43.828Z,9.44
2022-10-11T08:07:10.517Z,9.47
2022-10-11T08:09:37.192Z,9.51
2022-10-11T08:12:03.908Z,9.62
2022-10-11T08:14:33.488Z,9.72
2022-10-11T08:17:00.203Z,9.81
2022-10-11T08:19:26.900Z,9.94
2022-10-11T08:21:53.685Z,10.18
2022-10-11T08:24:21.025Z,10.36
2022-10-11T08:26:48.099Z,10.44
2022-10-11T08:29:14.938Z,10.50
2022-10-11T08:31:41.630Z,10.31
2022-10-11T08:34:08.373Z,10.24
2022-10-11T08:36:35.136Z,10.14
2022-10-11T08:39:01.871Z,10.22
2022-10-11T08:41:37.866Z,10.21
2022-10-11T08:44:13.384Z,10.32
2022-10-11T08:46:45.555Z,10.41
2022-10-11T08:49:15.480Z,10.45
2022-10-11T08:51:46.802Z,10.51
2022-10-11T08:54:45.458Z,10.47
2022-10-11T08:57:16.563Z,10.44
2022-10-11T08:59:51.241Z,10.48
2022-10-11T09:03:06.478Z,10.66
2022-10-11T09:05:34.735Z,10.74
2022-10-11T09:08:39.933Z,11.00
2022-10-11T09:11:13.474Z,11.11
2022-10-11T09:14:05.788Z,11.01
2022-10-11T09:16:45.002Z,11.08
2022-10-11T09:19:49.385Z,11.11
2022-10-11T09:22:43.608Z,11.09
2022-10-11T09:25:27.536Z,11.22
2022-10-11T09:28:24.014Z,11.19
2022-10-11T09:30:54.818Z,11.55
2022-10-11T09:33:38.749Z,11.83
2022-10-11T09:36:18.980Z,11.88
2022-10-11T09:38:56.738Z,11.87
2022-10-11T09:41:33.297Z,13.04
2022-10-11T09:46:42.393Z,13.42
2022-10-11T09:49:14.401Z,13.55
2022-10-11T09:51:50.917Z,13.45
2022-10-11T09:54:20.666Z,13.43
2022-10-11T09:56:47.484Z,13.67
2022-10-11T09:59:26.521Z,13.94
2022-10-11T10:02:20.602Z,14.30
2022-10-11T10:04:58.270Z,13.57
2022-10-11T10:07:26.074Z,13.22
2022-10-11T10:09:53.214Z,13.07
2022-10-11T10:12:27.441Z,13.19
2022-10-11T10:15:14.020Z,12.98
2022-10-11T10:17:49.668Z,13.07
2022-10-11T10:20:50.498Z,13.12
2022-10-11T10:23:25.006Z,12.88
2022-10-11T10:25:53.051Z,12.83
2022-10-11T10:28:27.373Z,12.77
2022-10-11T10:30:57.252Z,12.60
2022-10-11T10:33:27.085Z,12.41
2022-10-11T10:36:03.297Z,12.30
2022-10-11T10:38:37.520Z,12.27
2022-10-11T10:41:09.318Z,11.94
2022-10-11T10:43:38.800Z,11.71
2022-10-11T10:46:31.657Z,11.74
2022-10-11T10:49:34.498Z,11.77
2022-10-11T10:51:57.884Z,11.80
2022-10-11T10:54:30.440Z,11.76
2022-10-11T10:57:03.926Z,11.87
2022-10-11T10:59:52.530Z,11.80
2022-10-11T11:02:41.618Z,11.86
2022-10-11T11:05:23.698Z,12.05
2022-10-11T11:07:54.078Z,11.89
2022-10-11T11:10:33.929Z,11.91
2022-10-11T11:13:09.859Z,11.98
2022-10-11T11:15:45.121Z,12.43
2022-10-11T11:18:43.624Z,12.30
2022-10-11T11:21:40.540Z,12.28
2022-10-11T11:24:39.550Z,12.32
2022-10-11T11:27:12.205Z,12.62
2022-10-11T11:29:55.335Z,12.49
2022-10-11T11:32:45.718Z,13.05
2022-10-11T11:35:24.573Z,13.19
2022-10-11T11:38:01.383Z,13.54
2022-10-11T11:40:44.403Z,13.21
2022-10-11T11:43:23.593Z,13.52
2022-10-11T11:45:56.588Z,13.43
2022-10-11T11:48:25.349Z,13.15
2022-10-11T11:51:31.528Z,13.07
2022-10-11T11:54:13.187Z,13.14
2022-10-11T11:56:56.621Z,12.70
2022-10-11T11:59:33.810Z,12.82
2022-10-11T12:02:19.244Z,12.86
2022-10-11T12:04:48.460Z,12.67
2022-10-11T12:07:18.514Z,12.68
2022-10-11T12:10:18.506Z,12.82
2022-10-11T12:12:45.561Z,12.65
2022-10-11T12:15:26.128Z,12.35
2022-10-11T12:17:58.519Z,12.11
2022-10-11T12:20:31.664Z,12.03
2022-10-11T12:23:20.248Z,11.90
2022-10-11T12:26:18.609Z,11.78
2022-10-11T12:29:07.628Z,11.75
2022-10-11T12:31:36.481Z,11.74
2022-10-11T12:34:16.959Z,11.55
2022-10-11T12:36:50.905Z,11.64
2022-10-11T12:39:20.699Z,11.63
2022-10-11T12:41:47.372Z,11.46
2022-10-11T12:44:21.007Z,11.60
2022-10-11T12:46:50.541Z,11.54
2022-10-11T12:49:39.083Z,11.53
2022-10-11T12:52:17.849Z,11.43
2022-10-11T12:55:12.355Z,11.52
2022-10-11T12:58:06.010Z,11.69
2022-10-11T13:00:52.949Z,11.56
2022-10-11T13:03:35.265Z,11.70
2022-10-11T13:06:25.063Z,11.64
2022-10-11T13:09:18.233Z,11.80
2022-10-11T13:11:54.074Z,11.98
2022-10-11T13:14:26.247Z,12.11
2022-10-11T13:17:19.404Z,12.28
2022-10-11T13:19:50.643Z,12.50
2022-10-11T13:22:23.241Z,12.41
2022-10-11T13:24:50.053Z,12.45
2022-10-11T13:27:27.346Z,12.36
2022-10-11T13:29:59.355Z,12.34
2022-10-11T13:32:30.229Z,12.48
2022-10-11T13:35:14.703Z,12.33
2022-10-11T13:37:45.824Z,12.45
2022-10-11T13:40:18.497Z,12.36
2022-10-11T13:42:46.254Z,12.37
2022-10-11T13:45:14.398Z,12.51
2022-10-11T13:47:41.233Z,12.45
2022-10-11T13:50:13.963Z,12.34
2022-10-11T13:52:57.210Z,12.25
2022-10-11T13:55:30.530Z,12.33
2022-10-11T13:57:59.572Z,12.44
2022-10-11T14:00:39.167Z,12.37
2022-10-11T14:03:14.975Z,12.47
2022-10-11T14:05:51.566Z,12.46
2022-10-11T14:08:27.102Z,12.49
2022-10-11T14:10:57.149Z,12.61
2022-10-11T14:13:29.148Z,12.64
2022-10-11T14:16:08.525Z,12.62
2022-10-11T14:18:45.305Z,12.78
2022-10-11T14:21:27.044Z,12.81
2022-10-11T14:23:56.534Z,12.81
2022-10-11T14:26:24.418Z,12.74
2022-10-11T14:28:58.100Z,12.71
2022-10-11T14:31:28.921Z,12.69
2022-10-11T14:33:56.577Z,12.75
2022-10-11T14:36:23.883Z,12.78
2022-10-11T14:38:52.369Z,12.87
2022-10-11T14:41:19.443Z,12.80
2022-10-11T14:43:46.256Z,12.74
2022-10-11T14:46:25.154Z,12.79
2022-10-11T14:48:56.547Z,12.70
2022-10-11T14:51:29.607Z,12.62
2022-10-11T14:53:56.427Z,12.60
2022-10-11T14:56:23.203Z,12.59
2022-10-11T14:58:50.024Z,12.55
2022-10-11T15:01:17.739Z,12.53
2022-10-11T15:03:44.757Z,12.47
2022-10-11T15:06:26.450Z,12.55
2022-10-11T15:08:53.101Z,12.43
2022-10-11T15:11:21.715Z,12.44
2022-10-11T15:13:49.207Z,12.36
2022-10-11T15:16:19.609Z,12.22
2022-10-11T15:18:51.860Z,12.18
2022-10-11T15:21:24.257Z,12.18
2022-10-11T15:23:52.290Z,12.19
2022-10-11T15:26:22.009Z,12.13
2022-10-11T15:28:49.112Z,12.03
2022-10-11T15:31:16.576Z,12.01
2022-10-11T15:33:43.758Z,12.08
2022-10-11T15:36:19.005Z,12.08
2022-10-11T15:38:46.937Z,12.00
2022-10-11T15:41:15.737Z,11.96
2022-10-11T15:43:43.951Z,11.96
2022-10-11T15:46:15.306Z,11.92
2022-10-11T15:48:41.838Z,11.99
2022-10-11T15:51:08.492Z,11.93
2022-10-11T15:53:35.325Z,11.89
2022-10-11T15:56:06.028Z,11.83
2022-10-11T15:58:35.377Z,11.73
2022-10-11T16:01:11.731Z,11.70
2022-10-11T16:03:38.540Z,11.58
2022-10-11T16:06:06.025Z,11.49
2022-10-11T16:08:34.147Z,11.50
2022-10-11T16:11:32.636Z,11.47
2022-10-11T16:13:59.378Z,11.42
2022-10-11T16:16:26.027Z,11.37
2022-10-11T16:18:52.992Z,11.34
2022-10-11T16:21:21.010Z,11.28
2022-10-11T16:23:47.747Z,11.30
2022-10-11T16:26:16.475Z,11.27
2022-10-11T16:28:43.615Z,11.21
2022-10-11T16:31:14.215Z,11.12
2022-10-11T16:33:45.945Z,11.12
2022-10-11T16:36:40.340Z,11.13
2022-10-11T16:39:16.940Z,11.18
2022-10-11T16:41:44.492Z,11.16
2022-10-11T16:44:15.782Z,11.17
2022-10-11T16:46:43.296Z,11.24
2022-10-11T16:49:10.047Z,11.21
2022-10-11T16:51:36.810Z,11.16
2022-10-11T16:54:03.818Z,11.15
2022-10-11T16:56:32.525Z,11.10
2022-10-11T16:59:00.831Z,11.06
2022-10-11T17:01:28.112Z,11.04
2022-10-11T17:03:55.783Z,11.01
2022-10-11T17:06:23.380Z,11.01
2022-10-11T17:08:50.604Z,11.00
2022-10-11T17:11:22.313Z,11.02
2022-10-11T17:13:50.166Z,11.00
2022-10-11T17:16:17.512Z,10.95
2022-10-11T17:18:44.354Z,10.89
2022-10-11T17:21:14.245Z,10.86
2022-10-11T17:23:41.720Z,10.81
2022-10-11T17:26:11.617Z,10.83
2022-10-11T17:28:38.791Z,10.80
2022-10-11T17:31:06.509Z,10.74
2022-10-11T17:33:33.526Z,10.72
2022-10-11T17:36:01.063Z,10.68
2022-10-11T17:38:28.175Z,10.59
2022-10-11T17:41:02.349Z,10.55
2022-10-11T17:43:30.004Z,10.50
2022-10-11T17:45:58.517Z,10.42
2022-10-11T17:48:26.941Z,10.41
2022-10-11T17:50:54.175Z,10.39
2022-10-11T17:53:21.491Z,10.39
2022-10-11T17:55:51.545Z,10.38
2022-10-11T17:58:18.414Z,10.39
2022-10-11T18:00:45.296Z,10.40
2022-10-11T18:03:12.038Z,10.39
2022-10-11T18:05:42.024Z,10.44
2022-10-11T18:08:09.002Z,10.42
2022-10-11T18:10:38.566Z,10.43
2022-10-11T18:13:06.761Z,10.41
2022-10-11T18:15:34.185Z,10.40
2022-10-11T18:18:00.993Z,10.41
2022-10-11T18:20:27.643Z,10.41
2022-10-11T18:22:54.393Z,10.39
2022-10-11T18:25:21.185Z,10.40
2022-10-11T18:27:47.918Z,10.40
2022-10-11T18:30:14.763Z,10.40
2022-10-11T18:32:41.528Z,10.38
2022-10-11T18:35:08.662Z,10.36
2022-10-11T18:37:35.389Z,10.33
2022-10-11T18:40:02.198Z,10.32
2022-10-11T18:42:28.888Z,10.35
2022-10-11T18:44:56.943Z,10.32
2022-10-11T18:47:23.598Z,10.32
2022-10-11T18:49:50.285Z,10.30
2022-10-11T18:52:17.050Z,10.23
2022-10-11T18:54:43.815Z,10.25
2022-10-11T18:57:10.469Z,10.14
2022-10-11T18:59:37.229Z,10.14
2022-10-11T19:02:04.926Z,10.09
2022-10-11T19:04:34.245Z,10.11
2022-10-11T19:07:01.109Z,10.08
2022-10-11T19:09:28.813Z,10.11
2022-10-11T19:11:57.265Z,10.04
2022-10-11T19:14:26.632Z,10.08
2022-10-11T19:16:54.549Z,10.06
2022-10-11T19:19:24.939Z,10.02
2022-10-11T19:21:52.395Z,10.05
2022-10-11T19:24:22.066Z,10.04
2022-10-11T19:26:50.092Z,10.00
2022-10-11T19:29:19.708Z,9.98
2022-10-11T19:31:52.009Z,10.00
2022-10-11T19:34:20.145Z,9.91
2022-10-11T19:36:50.081Z,9.90
2022-10-11T19:39:18.423Z,9.90
2022-10-11T19:41:45.552Z,9.89
2022-10-11T19:44:13.089Z,9.89
2022-10-11T19:46:55.393Z,9.89
2022-10-11T19:49:25.156Z,9.91
2022-10-11T19:51:53.457Z,9.94
2022-10-11T19:54:20.356Z,9.93
2022-10-11T19:56:47.521Z,9.95
2022-10-11T19:59:15.042Z,9.93
2022-10-11T20:01:42.256Z,9.96
2022-10-11T20:04:22.916Z,9.94
2022-10-11T20:06:54.384Z,9.89
2022-10-11T20:09:29.942Z,9.88
2022-10-11T20:11:57.631Z,9.84
2022-10-11T20:14:24.531Z,9.81
2022-10-11T20:16:51.227Z,9.75
2022-10-11T20:19:18.758Z,9.71
2022-10-11T20:21:45.718Z,9.70
2022-10-11T20:24:12.796Z,9.67
2022-10-11T20:26:39.981Z,9.70
2022-10-11T20:29:06.938Z,9.70
2022-10-11T20:31:38.034Z,9.68
2022-10-11T20:34:07.325Z,9.69
2022-10-11T20:36:36.118Z,9.70
2022-10-11T20:39:04.787Z,9.71
2022-10-11T20:41:36.937Z,9.72
2022-10-11T20:44:04.828Z,9.73
2022-10-11T20:46:36.949Z,9.78
2022-10-11T20:49:06.580Z,9.80
2022-10-11T20:51:35.718Z,9.84
2022-10-11T20:54:02.473Z,9.87
2022-10-11T20:56:29.980Z,9.91
2022-10-11T20:58:58.216Z,9.93
2022-10-11T21:01:27.886Z,9.93
2022-10-11T21:03:57.050Z,9.93
2022-10-11T21:06:23.746Z,9.91
2022-10-11T21:08:50.509Z,9.92
2022-10-11T21:11:17.234Z,9.94
2022-10-11T21:13:43.986Z,9.96
2022-10-11T21:16:16.127Z,9.97
2022-10-11T21:18:42.996Z,9.92
2022-10-11T21:21:11.955Z,9.90
2022-10-11T21:23:39.556Z,9.89
2022-10-11T21:26:09.098Z,9.87
2022-10-11T21:28:35.883Z,9.87
2022-10-11T21:31:07.705Z,9.87
2022-10-11T21:33:35.664Z,9.90
2022-10-11T21:36:19.513Z,9.88
2022-10-11T21:38:46.707Z,9.89
2022-10-11T21:41:21.844Z,9.86
2022-10-11T21:43:52.759Z,9.82
2022-10-11T21:46:41.721Z,9.77
2022-10-11T21:49:12.016Z,9.77
2022-10-11T21:51:38.764Z,9.71
2022-10-11T21:54:05.764Z,9.70
2022-10-11T21:56:32.549Z,9.78
2022-10-11T21:58:59.398Z,9.69
2022-10-11T22:01:28.380Z,9.68
2022-10-11T22:03:55.304Z,9.75
2022-10-11T22:06:22.226Z,9.66
2022-10-11T22:08:52.746Z,9.73
2022-10-11T22:11:19.487Z,9.75
2022-10-11T22:13:46.254Z,9.73
2022-10-11T22:16:18.686Z,9.70
2022-10-11T22:18:45.498Z,9.68
2022-10-11T22:21:20.405Z,9.63
2022-10-11T22:23:49.037Z,9.67
2022-10-11T22:26:21.423Z,9.61
2022-10-11T22:28:48.329Z,9.64
2022-10-11T22:31:17.317Z,9.63
2022-10-11T22:36:12.918Z,9.60
2022-10-11T22:38:41.581Z,9.58
2022-10-11T22:41:08.480Z,9.60
2022-10-11T22:43:36.328Z,9.62
2022-10-11T22:46:05.611Z,9.62
2022-10-11T22:48:32.398Z,9.61
2022-10-11T22:50:59.413Z,9.68
2022-10-11T22:53:26.089Z,9.64
2022-10-11T22:55:52.843Z,9.64
2022-10-11T22:58:19.538Z,9.66
2022-10-11T23:00:46.254Z,9.60
2022-10-11T23:03:14.503Z,9.63
2022-10-11T23:05:41.503Z,9.59
2022-10-11T23:08:09.602Z,9.60
2022-10-11T23:10:40.204Z,9.63
2022-10-11T23:13:07.213Z,9.61
2022-10-11T23:15:34.004Z,9.58
2022-10-11T23:18:00.725Z,9.57
2022-10-11T23:20:27.465Z,9.57
2022-10-11T23:22:54.153Z,9.56
2022-10-11T23:25:20.876Z,9.57
2022-10-11T23:27:47.562Z,9.53
2022-10-11T23:30:14.663Z,9.50
2022-10-11T23:32:41.385Z,9.53
2022-10-11T23:35:08.304Z,9.52
2022-10-11T23:37:35.330Z,9.55
2022-10-11T23:40:02.355Z,9.56
2022-10-11T23:42:29.172Z,9.54
2022-10-11T23:44:55.981Z,9.53
2022-10-11T23:47:22.732Z,9.54
2022-10-11T23:49:49.411Z,9.53
2022-10-11T23:52:16.068Z,9.50
2022-10-11T23:54:42.739Z,9.51
2022-10-11T23:57:09.428Z,9.57
2022-10-11T23:59:36.036Z,9.57
